Time;durP1;ratioP1;P1;durP2;ratioP2;P2;SDS_P1;SDS_P2;PMS_P1;PMS_P2;Temp;Humidity;BMP_temperature;BMP_pressure;BME280_temperature;BME280_humidity;BME280_pressure;Samples;Min_cycle;Max_cycle;Signal;HPM_P1;HPM_P2
2023/06/05 00:00:26;;;;;;;4.35;2.80;;;;;16.30;98805.00;;;;5072796;28;20040;-62
2023/06/05 00:02:53;;;;;;;5.50;2.83;;;;;16.30;98805.00;;;;5073353;28;20486;-62
2023/06/05 00:05:19;;;;;;;3.35;2.90;;;;;16.20;98804.00;;;;5074354;28;20501;-63
2023/06/05 00:07:46;;;;;;;3.80;2.63;;;;;16.20;98797.00;;;;5075668;28;20048;-62
2023/06/05 00:10:13;;;;;;;3.47;2.85;;;;;16.20;98808.00;;;;5057837;28;20563;-64
2023/06/05 00:12:41;;;;;;;4.75;2.70;;;;;16.10;98807.00;;;;5073815;28;20513;-62
2023/06/05 00:15:07;;;;;;;4.47;3.65;;;;;16.10;98801.00;;;;5074630;28;20441;-63
2023/06/05 00:17:34;;;;;;;3.70;2.72;;;;;16.00;98810.00;;;;5075182;28;20048;-63
2023/06/05 00:20:01;;;;;;;4.63;2.90;;;;;15.90;98806.00;;;;5074743;28;20048;-63
2023/06/05 00:22:28;;;;;;;3.67;2.97;;;;;15.90;98811.00;;;;5073780;28;20088;-63
2023/06/05 00:24:58;;;;;;;4.00;3.10;;;;;15.90;98807.00;;;;5073982;28;20083;-64
2023/06/05 00:27:25;;;;;;;3.55;2.97;;;;;15.90;98800.00;;;;5057204;28;20098;-63
2023/06/05 00:29:51;;;;;;;3.38;2.95;;;;;15.90;98795.00;;;;5074389;28;20102;-63
2023/06/05 00:32:18;;;;;;;8.35;2.97;;;;;15.90;98793.00;;;;5065310;28;20049;-64
2023/06/05 00:34:46;;;;;;;3.63;3.00;;;;;15.90;98797.00;;;;5054678;28;20124;-64
2023/06/05 00:37:13;;;;;;;3.90;3.00;;;;;15.90;98799.00;;;;5054544;28;20486;-62
2023/06/05 00:39:40;;;;;;;4.57;2.90;;;;;15.80;98788.00;;;;5054235;28;20045;-63
2023/06/05 00:42:08;;;;;;;4.32;3.03;;;;;15.80;98788.00;;;;5054425;28;20048;-62
2023/06/05 00:44:35;;;;;;;4.88;3.05;;;;;15.70;98780.00;;;;5054114;28;20072;-63
2023/06/05 00:47:03;;;;;;;4.50;3.17;;;;;15.70;98781.00;;;;5053380;28;20041;-64
2023/06/05 00:49:30;;;;;;;4.03;2.72;;;;;15.70;98788.00;;;;5052952;28;20453;-62
2023/06/05 00:51:58;;;;;;;5.60;2.80;;;;;15.50;98797.00;;;;5052585;28;20073;-63
2023/06/05 00:54:25;;;;;;;4.70;3.10;;;;;15.40;98787.00;;;;5052832;28;20041;-63
2023/06/05 00:56:52;;;;;;;3.53;2.78;;;;;15.40;98787.00;;;;5054278;28;20089;-64
2023/06/05 00:59:19;;;;;;;5.03;2.88;;;;;15.30;98780.00;;;;5054037;28;20048;-62
2023/06/05 01:01:47;;;;;;;4.68;3.20;;;;;15.30;98791.00;;;;5054194;28;20041;-64
2023/06/05 01:04:14;;;;;;;5.80;3.00;;;;;15.30;98786.00;;;;5054343;28;20040;-63
2023/06/05 01:06:41;;;;;;;4.18;2.72;;;;;15.30;98787.00;;;;5060496;28;20144;-63
2023/06/05 01:09:10;;;;;;;5.38;3.03;;;;;15.20;98782.00;;;;5066598;28;20053;-63
2023/06/05 01:11:53;;;;;;;3.72;2.78;;;;;15.10;98785.00;;;;5061241;28;20041;-62
2023/06/05 01:14:32;;;;;;;8.63;3.20;;;;;15.00;98781.00;;;;5069366;28;20041;-64
2023/06/05 01:17:02;;;;;;;4.82;3.20;;;;;14.90;98779.00;;;;5051882;28;20051;-64
2023/06/05 01:19:30;;;;;;;3.90;2.92;;;;;14.70;98777.00;;;;5069084;28;20048;-64
2023/06/05 01:21:58;;;;;;;3.83;2.80;;;;;14.70;98771.00;;;;5069889;28;20556;-64
2023/06/05 01:24:27;;;;;;;4.30;3.10;;;;;14.80;98773.00;;;;5054281;28;20095;-63
2023/06/05 01:27:02;;;;;;;3.58;2.95;;;;;14.80;98776.00;;;;5054051;28;20049;-62
2023/06/05 01:29:43;;;;;;;3.25;2.95;;;;;14.80;98770.00;;;;5069110;28;20052;-62
2023/06/05 01:32:24;;;;;;;2.78;2.50;;;;;14.80;98767.00;;;;5053935;28;20465;-61
2023/06/05 01:34:53;;;;;;;4.72;3.10;;;;;14.60;98766.00;;;;5035947;28;20103;-63
2023/06/05 01:37:24;;;;;;;4.22;3.28;;;;;14.60;98767.00;;;;5069303;28;20606;-64
2023/06/05 01:39:54;;;;;;;3.97;2.88;;;;;14.50;98763.00;;;;5052390;28;20068;-62
2023/06/05 01:42:23;;;;;;;4.25;3.42;;;;;14.50;98755.00;;;;5053096;28;20045;-62
2023/06/05 01:44:50;;;;;;;5.18;3.40;;;;;14.30;98757.00;;;;5052606;28;20094;-63
2023/06/05 01:47:17;;;;;;;3.78;3.15;;;;;14.30;98750.00;;;;5068489;28;20064;-62
2023/06/05 01:49:44;;;;;;;5.03;2.72;;;;;14.30;98751.00;;;;5052908;28;20064;-62
2023/06/05 01:52:11;;;;;;;3.70;2.58;;;;;14.30;98753.00;;;;5068379;28;20143;-61
2023/06/05 01:54:38;;;;;;;3.47;2.60;;;;;14.20;98747.00;;;;5068231;28;20068;-62
2023/06/05 01:57:05;;;;;;;3.78;2.70;;;;;14.10;98757.00;;;;5068248;28;20044;-62
2023/06/05 01:59:33;;;;;;;4.25;3.00;;;;;14.00;98757.00;;;;5051474;28;20084;-62
2023/06/05 02:02:00;;;;;;;4.35;2.83;;;;;13.90;98749.00;;;;5068018;28;20052;-62
2023/06/05 02:04:29;;;;;;;4.53;2.60;;;;;13.90;98751.00;;;;5051551;28;20041;-62
2023/06/05 02:06:58;;;;;;;4.32;2.78;;;;;13.90;98750.00;;;;5051482;28;20106;-62
2023/06/05 02:09:24;;;;;;;3.50;2.40;;;;;13.80;98758.00;;;;5051117;28;20091;-63
2023/06/05 02:11:53;;;;;;;3.33;2.53;;;;;13.70;98758.00;;;;5068120;28;20079;-62
2023/06/05 02:14:20;;;;;;;3.83;3.13;;;;;13.70;98746.00;;;;5052633;28;20048;-62
2023/06/05 02:16:47;;;;;;;3.47;2.30;;;;;13.60;98750.00;;;;5051190;28;20060;-63
2023/06/05 02:19:15;;;;;;;2.85;2.35;;;;;13.60;98751.00;;;;5067794;28;20449;-62
2023/06/05 02:21:41;;;;;;;3.17;2.40;;;;;13.50;98745.00;;;;5052324;28;20049;-62
2023/06/05 02:24:08;;;;;;;4.13;2.45;;;;;13.50;98746.00;;;;5067849;28;20041;-62
2023/06/05 02:26:34;;;;;;;3.95;2.45;;;;;13.50;98746.00;;;;5052163;28;20045;-62
2023/06/05 02:29:01;;;;;;;2.22;2.03;;;;;13.50;98740.00;;;;5033349;28;20049;-63
2023/06/05 02:31:31;;;;;;;5.25;2.67;;;;;13.50;98751.00;;;;5050853;28;20051;-62
2023/06/05 02:33:58;;;;;;;2.83;2.60;;;;;13.50;98745.00;;;;5067726;28;20128;-62
2023/06/05 02:36:24;;;;;;;3.22;2.42;;;;;13.50;98744.00;;;;5050662;28;20135;-63
2023/06/05 02:38:52;;;;;;;3.20;2.60;;;;;13.50;98741.00;;;;5050684;28;20055;-62
2023/06/05 02:41:21;;;;;;;4.20;2.80;;;;;13.50;98745.00;;;;5050868;28;20412;-62
2023/06/05 02:43:48;;;;;;;2.60;2.10;;;;;13.50;98742.00;;;;5050905;28;20044;-63
2023/06/05 02:46:15;;;;;;;3.53;2.75;;;;;13.60;98743.00;;;;5051722;28;20036;-62
2023/06/05 02:48:43;;;;;;;3.50;2.42;;;;;13.50;98741.00;;;;5067389;28;20079;-62
2023/06/05 02:51:10;;;;;;;3.22;2.60;;;;;13.40;98731.00;;;;5067195;28;20077;-62
2023/06/05 02:53:39;;;;;;;4.65;3.22;;;;;13.50;98738.00;;;;5050723;28;20136;-62
2023/06/05 02:56:06;;;;;;;3.95;2.67;;;;;13.40;98734.00;;;;5051817;28;20041;-62
2023/06/05 02:58:33;;;;;;;2.78;2.50;;;;;13.30;98737.00;;;;5051843;28;20045;-63
2023/06/05 03:01:01;;;;;;;4.97;2.75;;;;;13.20;98730.00;;;;5067193;28;20055;-62
2023/06/05 03:03:35;;;;;;;3.83;2.35;;;;;13.10;98734.00;;;;5067285;28;20099;-63
2023/06/05 03:06:06;;;;;;;3.88;2.75;;;;;13.00;98732.00;;;;5051883;28;20410;-62
2023/06/05 03:08:38;;;;;;;3.72;2.70;;;;;13.00;98738.00;;;;5050684;28;20091;-62
2023/06/05 03:11:09;;;;;;;3.03;2.55;;;;;12.90;98742.00;;;;5067124;28;20454;-62
2023/06/05 03:13:36;;;;;;;4.05;2.55;;;;;12.90;98740.00;;;;5051155;28;20044;-62
2023/06/05 03:16:03;;;;;;;3.25;2.20;;;;;12.90;98730.00;;;;5050467;28;20501;-62
2023/06/05 03:18:34;;;;;;;4.03;2.38;;;;;12.80;98739.00;;;;5050796;28;20049;-62
2023/06/05 03:21:01;;;;;;;3.80;2.90;;;;;12.80;98736.00;;;;5066691;28;20417;-61
2023/06/05 03:23:29;;;;;;;5.63;2.70;;;;;12.80;98730.00;;;;5050841;28;20446;-62
2023/06/05 03:25:59;;;;;;;4.10;3.08;;;;;12.90;98732.00;;;;5050935;28;20057;-62
2023/06/05 03:28:26;;;;;;;5.35;3.15;;;;;13.10;98738.00;;;;5067369;28;20482;-62
2023/06/05 03:30:56;;;;;;;5.75;4.07;;;;;13.20;98741.00;;;;5050253;28;20065;-62
2023/06/05 03:33:27;;;;;;;4.20;3.22;;;;;13.30;98738.00;;;;5050232;28;20088;-62
2023/06/05 03:35:55;;;;;;;3.25;2.50;;;;;13.30;98738.00;;;;5050424;28;20053;-62
2023/06/05 03:38:23;;;;;;;4.82;3.45;;;;;13.10;98737.00;;;;5050199;28;20072;-62
2023/06/05 03:40:50;;;;;;;5.50;3.03;;;;;13.10;98747.00;;;;5052673;28;20045;-61
2023/06/05 03:43:19;;;;;;;5.80;2.83;;;;;13.10;98740.00;;;;5070831;28;20045;-63
2023/06/05 03:45:46;;;;;;;3.58;2.85;;;;;13.10;98746.00;;;;5070638;28;20045;-62
2023/06/05 03:48:13;;;;;;;7.53;5.15;;;;;13.30;98737.00;;;;5070482;28;20064;-62
2023/06/05 03:50:42;;;;;;;4.90;2.75;;;;;13.30;98738.00;;;;5069831;28;20045;-62
2023/06/05 03:53:10;;;;;;;5.95;2.88;;;;;13.40;98743.00;;;;5055097;28;20407;-62
2023/06/05 03:55:41;;;;;;;37.28;25.40;;;;;13.40;98744.00;;;;5070225;28;20422;-62
2023/06/05 03:58:13;;;;;;;24.13;13.90;;;;;13.40;98742.00;;;;5054033;28;20075;-62
2023/06/05 04:00:44;;;;;;;4.82;3.22;;;;;13.40;98748.00;;;;5070260;28;20049;-62
2023/06/05 04:03:12;;;;;;;8.30;5.93;;;;;13.40;98744.00;;;;5054311;28;20048;-63
2023/06/05 04:05:39;;;;;;;8.73;5.20;;;;;13.40;98745.00;;;;5054358;28;20060;-62
2023/06/05 04:08:09;;;;;;;7.22;3.83;;;;;13.50;98742.00;;;;5070482;28;20049;-62
2023/06/05 04:10:36;;;;;;;5.63;3.50;;;;;13.60;98739.00;;;;5053495;28;20053;-62
2023/06/05 04:13:04;;;;;;;8.32;3.00;;;;;13.50;98743.00;;;;5054959;28;20044;-62
2023/06/05 04:15:33;;;;;;;4.22;2.85;;;;;13.40;98738.00;;;;5053656;28;20177;-64
2023/06/05 04:18:01;;;;;;;3.15;2.80;;;;;13.30;98745.00;;;;5053521;28;20072;-62
2023/06/05 04:20:29;;;;;;;8.15;3.42;;;;;13.30;98747.00;;;;5069871;28;20425;-63
2023/06/05 04:22:56;;;;;;;5.30;3.45;;;;;13.30;98739.00;;;;5053308;28;20057;-62
2023/06/05 04:25:28;;;;;;;5.72;3.10;;;;;13.30;98749.00;;;;5053708;28;20049;-62
2023/06/05 04:27:57;;;;;;;5.13;3.15;;;;;13.40;98749.00;;;;5054717;28;20045;-63
2023/06/05 04:30:24;;;;;;;4.63;3.40;;;;;13.50;98751.00;;;;5052760;28;20073;-62
2023/06/05 04:32:54;;;;;;;8.90;4.00;;;;;13.70;98744.00;;;;5053110;28;20052;-63
2023/06/05 04:35:23;;;;;;;4.25;3.17;;;;;13.90;98748.00;;;;5052824;28;20156;-63
2023/06/05 04:37:50;;;;;;;6.38;4.65;;;;;14.10;98747.00;;;;5070768;28;20052;-63
2023/06/05 04:40:21;;;;;;;8.15;4.43;;;;;14.20;98752.00;;;;5054179;28;20432;-62
2023/06/05 04:42:52;;;;;;;5.10;3.67;;;;;14.20;98745.00;;;;5054399;28;20045;-61
2023/06/05 04:45:19;;;;;;;7.65;3.25;;;;;14.30;98745.00;;;;5054438;28;20049;-63
2023/06/05 04:47:47;;;;;;;5.03;3.15;;;;;14.40;98740.00;;;;5070689;28;20055;-63
2023/06/05 04:50:26;;;;;;;3.75;2.90;;;;;14.40;98744.00;;;;5055191;28;20056;-63
2023/06/05 04:53:04;;;;;;;3.28;2.53;;;;;14.50;98735.00;;;;5069264;28;20060;-63
2023/06/05 04:55:32;;;;;;;5.07;3.17;;;;;14.70;98743.00;;;;5054877;28;20439;-64
2023/06/05 04:58:02;;;;;;;4.30;2.75;;;;;14.80;98742.00;;;;5056276;28;20166;-64
2023/06/05 05:00:30;;;;;;;8.45;3.53;;;;;14.90;98745.00;;;;5070432;28;20045;-63
2023/06/05 05:02:59;;;;;;;4.50;2.92;;;;;15.00;98741.00;;;;5071521;28;20053;-63
2023/06/05 05:05:27;;;;;;;4.60;2.83;;;;;15.10;98747.00;;;;5053924;28;20049;-62
2023/06/05 05:07:55;;;;;;;5.32;2.78;;;;;15.00;98741.00;;;;5071367;28;20045;-62
2023/06/05 05:10:24;;;;;;;6.07;3.08;;;;;15.00;98743.00;;;;5056022;28;20045;-63
2023/06/05 05:12:51;;;;;;;8.98;3.97;;;;;15.10;98747.00;;;;5060504;28;20045;-65
2023/06/05 05:15:20;;;;;;;3.90;3.25;;;;;15.30;98741.00;;;;5055203;28;20044;-62
2023/06/05 05:17:47;;;;;;;5.63;3.03;;;;;15.40;98749.00;;;;5054756;28;20049;-63
2023/06/05 05:20:14;;;;;;;3.65;2.80;;;;;15.50;98754.00;;;;5053444;28;20115;-62
2023/06/05 05:22:42;;;;;;;4.03;2.50;;;;;15.60;98750.00;;;;5055145;28;20044;-63
2023/06/05 05:25:09;;;;;;;4.53;3.05;;;;;15.70;98754.00;;;;5052954;28;20041;-62
2023/06/05 05:27:35;;;;;;;4.72;2.78;;;;;15.80;98760.00;;;;5053409;28;20057;-64
2023/06/05 05:30:02;;;;;;;3.53;2.60;;;;;15.80;98751.00;;;;5069145;28;20044;-64
2023/06/05 05:32:29;;;;;;;4.93;3.33;;;;;15.80;98755.00;;;;5069537;28;20056;-63
2023/06/05 05:34:56;;;;;;;7.25;3.63;;;;;15.90;98749.00;;;;5052622;28;20045;-63
2023/06/05 05:37:23;;;;;;;16.80;2.80;;;;;15.90;98753.00;;;;5057106;28;20182;-63
2023/06/05 05:39:50;;;;;;;5.05;2.75;;;;;16.00;98753.00;;;;5057514;28;20533;-64
2023/06/05 05:42:17;;;;;;;9.80;4.05;;;;;15.90;98753.00;;;;5060366;28;20049;-64
2023/06/05 05:44:44;;;;;;;4.90;2.42;;;;;16.00;98750.00;;;;5060714;28;20049;-63
2023/06/05 05:47:11;;;;;;;5.30;3.15;;;;;16.20;98758.00;;;;5056953;28;20409;-62
2023/06/05 05:49:37;;;;;;;5.53;2.55;;;;;16.40;98757.00;;;;5055813;28;20081;-62
2023/06/05 05:52:04;;;;;;;6.80;2.50;;;;;16.60;98756.00;;;;5057050;28;20127;-63
2023/06/05 05:54:30;;;;;;;4.72;2.38;;;;;16.60;98751.00;;;;5072735;28;20075;-64
2023/06/05 05:56:57;;;;;;;6.88;2.33;;;;;16.80;98751.00;;;;5057261;28;20368;-63
2023/06/05 05:59:24;;;;;;;3.10;2.38;;;;;16.80;98750.00;;;;5072747;28;20049;-63
2023/06/05 06:01:51;;;;;;;5.10;2.40;;;;;16.90;98752.00;;;;5057017;28;20552;-64
2023/06/05 06:04:18;;;;;;;7.68;2.60;;;;;17.00;98751.00;;;;5074511;28;20032;-63
2023/06/05 06:06:52;;;;;;;5.15;1.90;;;;;17.10;98747.00;;;;5058338;28;20041;-63
2023/06/05 06:09:18;;;;;;;5.15;2.45;;;;;17.10;98752.00;;;;5055268;28;20513;-63
2023/06/05 06:11:46;;;;;;;7.00;2.95;;;;;17.20;98760.00;;;;5056535;28;20052;-64
2023/06/05 06:14:12;;;;;;;2.95;2.42;;;;;17.30;98751.00;;;;5055152;28;20064;-63
2023/06/05 06:16:40;;;;;;;3.08;2.13;;;;;17.40;98765.00;;;;5056429;28;20075;-64
2023/06/05 06:19:06;;;;;;;4.75;2.10;;;;;17.60;98757.00;;;;5054736;28;20075;-63
2023/06/05 06:21:33;;;;;;;3.50;1.75;;;;;17.70;98750.00;;;;5056249;28;20140;-63
2023/06/05 06:24:01;;;;;;;2.58;1.70;;;;;17.70;98750.00;;;;5057176;28;20069;-64
2023/06/05 06:26:27;;;;;;;3.38;1.92;;;;;17.70;98754.00;;;;5055569;28;20112;-63
2023/06/05 06:28:57;;;;;;;3.45;2.45;;;;;17.90;98760.00;;;;5057117;28;20528;-64
2023/06/05 06:31:24;;;;;;;2.60;2.00;;;;;18.00;98750.00;;;;5073001;28;20049;-62
2023/06/05 06:33:50;;;;;;;3.83;2.03;;;;;18.10;98761.00;;;;5039900;28;20520;-63
2023/06/05 06:36:17;;;;;;;4.68;2.30;;;;;18.20;98758.00;;;;5057086;28;20524;-64
2023/06/05 06:38:44;;;;;;;2.35;1.95;;;;;18.30;98760.00;;;;5055490;28;20490;-64
2023/06/05 06:41:11;;;;;;;4.25;2.17;;;;;18.40;98766.00;;;;5065087;28;20068;-63
2023/06/05 06:43:37;;;;;;;5.78;2.83;;;;;18.50;98761.00;;;;5073765;28;20045;-64
2023/06/05 06:46:05;;;;;;;4.63;2.13;;;;;18.60;98768.00;;;;5056627;28;20441;-64
2023/06/05 06:48:32;;;;;;;4.97;1.88;;;;;18.60;98764.00;;;;5037061;28;20049;-62
2023/06/05 06:50:59;;;;;;;4.30;1.83;;;;;18.70;98761.00;;;;5054046;28;20128;-63
2023/06/05 06:53:26;;;;;;;3.17;1.90;;;;;18.90;98764.00;;;;5054002;28;20076;-63
2023/06/05 06:55:52;;;;;;;2.92;1.67;;;;;19.10;98768.00;;;;5052329;28;20512;-65
2023/06/05 06:58:19;;;;;;;2.88;1.60;;;;;19.10;98761.00;;;;5051987;28;20139;-63
2023/06/05 07:00:47;;;;;;;3.78;1.60;;;;;19.30;98775.00;;;;5052817;28;20045;-63
2023/06/05 07:03:13;;;;;;;4.50;2.05;;;;;19.40;98767.00;;;;5053118;28;20526;-65
2023/06/05 07:05:40;;;;;;;2.97;1.60;;;;;19.40;98770.00;;;;5051287;28;20072;-63
2023/06/05 07:08:07;;;;;;;2.92;1.65;;;;;19.50;98766.00;;;;5051680;28;20045;-63
2023/06/05 07:10:34;;;;;;;5.25;1.60;;;;;19.60;98764.00;;;;5052933;28;20045;-65
2023/06/05 07:13:00;;;;;;;3.47;1.40;;;;;19.80;98767.00;;;;5051701;28;20079;-64
2023/06/05 07:15:27;;;;;;;1.90;1.48;;;;;19.80;98774.00;;;;5053336;28;20306;-64
2023/06/05 07:17:54;;;;;;;3.17;1.38;;;;;19.80;98767.00;;;;5056659;28;20429;-63
2023/06/05 07:20:20;;;;;;;4.38;1.80;;;;;19.90;98763.00;;;;5056314;28;20068;-64
2023/06/05 07:22:47;;;;;;;2.75;1.60;;;;;19.90;98759.00;;;;5055512;28;20057;-64
2023/06/05 07:25:15;;;;;;;3.88;1.85;;;;;20.10;98772.00;;;;5056630;28;20048;-62
2023/06/05 07:27:44;;;;;;;3.60;1.77;;;;;20.20;98772.00;;;;5056456;28;20510;-63
2023/06/05 07:30:12;;;;;;;1.88;1.67;;;;;20.20;98770.00;;;;5055968;28;20091;-63
2023/06/05 07:32:42;;;;;;;4.70;2.00;;;;;20.30;98778.00;;;;5071418;28;20045;-63
2023/06/05 07:35:09;;;;;;;1.80;1.50;;;;;20.40;98772.00;;;;5071374;28;20041;-63
2023/06/05 07:37:36;;;;;;;3.95;1.63;;;;;20.50;98779.00;;;;5055902;28;20660;-65
2023/06/05 07:40:03;;;;;;;7.40;2.15;;;;;20.60;98782.00;;;;5055389;28;20494;-63
2023/06/05 07:42:29;;;;;;;2.53;1.50;;;;;20.60;98773.00;;;;5055914;28;20068;-64
2023/06/05 07:44:56;;;;;;;2.20;1.58;;;;;20.70;98769.00;;;;5054687;28;20644;-66
2023/06/05 07:47:23;;;;;;;3.88;1.60;;;;;20.80;98776.00;;;;5070991;28;20044;-64
2023/06/05 07:49:58;;;;;;;5.75;1.42;;;;;20.80;98768.00;;;;5054576;28;20132;-64
2023/06/05 07:52:26;;;;;;;1.38;1.27;;;;;20.90;98775.00;;;;5056280;28;20045;-62
2023/06/05 07:54:53;;;;;;;1.95;1.40;;;;;21.00;98776.00;;;;5056968;28;20478;-63
2023/06/05 07:57:20;;;;;;;4.65;1.70;;;;;21.00;98770.00;;;;5072236;28;20048;-63
2023/06/05 07:59:48;;;;;;;8.88;1.90;;;;;21.10;98764.00;;;;5056255;28;20041;-63
2023/06/05 08:02:16;;;;;;;1.83;1.58;;;;;21.30;98762.00;;;;5054926;28;20246;-63
2023/06/05 08:04:43;;;;;;;5.75;1.88;;;;;21.40;98773.00;;;;5056455;28;20061;-64
2023/06/05 08:07:10;;;;;;;2.75;1.63;;;;;21.60;98769.00;;;;5057202;28;20041;-64
2023/06/05 08:09:37;;;;;;;4.50;1.55;;;;;21.60;98771.00;;;;5056329;28;20048;-63
2023/06/05 08:12:07;;;;;;;1.73;1.38;;;;;21.70;98770.00;;;;5070982;28;20124;-63
2023/06/05 08:14:35;;;;;;;5.10;1.48;;;;;21.70;98773.00;;;;5056687;28;20139;-63
2023/06/05 08:17:02;;;;;;;4.05;1.60;;;;;21.80;98767.00;;;;5059395;28;20494;-64
2023/06/05 08:19:28;;;;;;;5.18;2.10;;;;;21.80;98764.00;;;;5073015;28;20108;-64
2023/06/05 08:21:56;;;;;;;4.13;1.88;;;;;21.90;98763.00;;;;5093048;28;20100;-66
2023/06/05 08:24:23;;;;;;;3.28;1.70;;;;;22.00;98764.00;;;;5073417;28;20051;-64
2023/06/05 08:26:49;;;;;;;6.18;3.97;;;;;22.10;98772.00;;;;5075098;28;20045;-64
2023/06/05 08:29:17;;;;;;;2.78;2.35;;;;;22.20;98762.00;;;;5076003;28;20049;-64
2023/06/05 08:31:44;;;;;;;4.22;1.70;;;;;22.30;98755.00;;;;5091592;28;20041;-65
2023/06/05 08:34:12;;;;;;;4.10;1.90;;;;;22.40;98759.00;;;;5075545;28;20053;-65
2023/06/05 08:36:39;;;;;;;3.53;1.95;;;;;22.40;98762.00;;;;5075630;28;20064;-66
2023/06/05 08:39:05;;;;;;;4.30;1.90;;;;;22.40;98759.00;;;;5091822;28;20425;-62
2023/06/05 08:41:32;;;;;;;3.55;1.90;;;;;22.30;98747.00;;;;5073450;28;20045;-63
2023/06/05 08:43:59;;;;;;;3.67;1.80;;;;;22.40;98754.00;;;;5080560;28;20048;-63
2023/06/05 08:46:30;;;;;;;3.42;1.50;;;;;22.50;98750.00;;;;5055320;28;20494;-63
2023/06/05 08:49:01;;;;;;;1.85;1.67;;;;;22.60;98753.00;;;;5054913;28;20045;-63
2023/06/05 08:51:28;;;;;;;4.07;1.85;;;;;22.80;98760.00;;;;5053800;28;20073;-63
2023/06/05 08:53:59;;;;;;;2.63;1.65;;;;;22.80;98762.00;;;;5055404;28;20548;-64
2023/06/05 08:56:27;;;;;;;4.05;1.60;;;;;22.70;98764.00;;;;5055170;28;20482;-63
2023/06/05 08:58:55;;;;;;;2.70;1.70;;;;;22.70;98762.00;;;;5055361;28;20044;-63
2023/06/05 09:01:22;;;;;;;3.10;1.50;;;;;22.80;98757.00;;;;5055283;28;20055;-63
2023/06/05 09:03:48;;;;;;;4.43;1.50;;;;;23.00;98753.00;;;;5054569;28;20053;-63
2023/06/05 09:06:15;;;;;;;2.38;1.70;;;;;23.00;98753.00;;;;5055541;28;20522;-64
2023/06/05 09:08:42;;;;;;;2.22;1.63;;;;;23.10;98757.00;;;;5071345;28;20040;-63
2023/06/05 09:11:31;;;;;;;3.65;1.98;;;;;23.10;98749.00;;;;5055310;28;20127;-63
2023/06/05 09:13:59;;;;;;;2.67;1.73;;;;;23.20;98758.00;;;;5070962;28;20144;-63
2023/06/05 09:16:52;;;;;;;4.40;1.88;;;;;23.30;98752.00;;;;5055167;28;20041;-63
2023/06/05 09:19:24;;;;;;;3.70;1.73;;;;;23.40;98745.00;;;;5054191;28;20672;-64
2023/06/05 09:21:54;;;;;;;3.90;1.80;;;;;23.40;98752.00;;;;5064575;28;20279;-65
2023/06/05 09:24:25;;;;;;;3.58;2.15;;;;;23.50;98747.00;;;;5064167;28;20570;-63
2023/06/05 09:27:08;;;;;;;2.83;2.30;;;;;23.50;98737.00;;;;5055450;28;20059;-66
2023/06/05 09:29:40;;;;;;;2.47;1.90;;;;;23.60;98741.00;;;;5054478;28;20091;-63
2023/06/05 09:32:08;;;;;;;2.97;1.95;;;;;23.80;98736.00;;;;5070520;28;20037;-64
2023/06/05 09:34:37;;;;;;;2.42;2.00;;;;;23.80;98736.00;;;;5053980;28;20144;-63
2023/06/05 09:37:08;;;;;;;3.50;2.08;;;;;23.90;98734.00;;;;5070653;28;20414;-64
2023/06/05 09:39:36;;;;;;;3.78;2.25;;;;;24.00;98735.00;;;;5070468;28;20456;-65
2023/06/05 09:42:03;;;;;;;3.53;1.95;;;;;24.20;98736.00;;;;5070876;28;20476;-64
2023/06/05 09:44:32;;;;;;;5.20;2.30;;;;;24.40;98733.00;;;;5058124;28;20041;-62
2023/06/05 09:47:12;;;;;;;2.60;1.70;;;;;24.50;98735.00;;;;5076831;28;20104;-63
2023/06/05 09:49:40;;;;;;;3.55;2.05;;;;;24.40;98740.00;;;;5073449;28;20045;-63
2023/06/05 09:52:08;;;;;;;2.78;2.00;;;;;24.50;98734.00;;;;5054792;28;20045;-64
2023/06/05 09:54:37;;;;;;;3.03;2.03;;;;;24.50;98728.00;;;;5069976;28;20106;-64
2023/06/05 09:57:06;;;;;;;3.65;1.98;;;;;24.60;98737.00;;;;5070992;28;20048;-63
2023/06/05 09:59:34;;;;;;;4.82;2.00;;;;;24.70;98737.00;;;;5053508;28;20232;-63
2023/06/05 10:02:05;;;;;;;4.18;2.30;;;;;24.70;98730.00;;;;5075237;28;20071;-64
2023/06/05 10:04:59;;;;;;;3.50;2.00;;;;;24.80;98733.00;;;;5074006;28;20063;-63
2023/06/05 10:07:27;;;;;;;3.33;2.42;;;;;24.80;98727.00;;;;5076769;28;20469;-64
2023/06/05 10:09:54;;;;;;;3.05;2.25;;;;;24.90;98726.00;;;;5075611;28;20068;-64
2023/06/05 10:12:23;;;;;;;5.93;2.42;;;;;25.10;98719.00;;;;5076172;28;20132;-64
2023/06/05 10:14:52;;;;;;;3.33;2.67;;;;;25.30;98728.00;;;;5073905;28;20428;-63
2023/06/05 10:17:20;;;;;;;2.67;1.80;;;;;25.30;98726.00;;;;5074723;28;20044;-64
2023/06/05 10:19:47;;;;;;;6.03;1.83;;;;;25.30;98732.00;;;;5073423;28;20052;-64
2023/06/05 10:22:18;;;;;;;4.30;2.10;;;;;25.30;98728.00;;;;5075135;28;20597;-63
2023/06/05 10:24:51;;;;;;;3.45;2.50;;;;;25.50;98725.00;;;;5073782;28;20045;-65
2023/06/05 10:27:42;;;;;;;2.90;2.40;;;;;25.50;98733.00;;;;5058022;28;20052;-64
2023/06/05 10:30:28;;;;;;;7.65;2.30;;;;;25.60;98732.00;;;;5074052;28;20087;-64
2023/06/05 10:33:09;;;;;;;2.58;2.35;;;;;25.50;98727.00;;;;5073254;28;20079;-64
2023/06/05 10:35:48;;;;;;;4.78;2.30;;;;;25.70;98731.00;;;;5075679;28;20036;-63
2023/06/05 10:38:17;;;;;;;2.65;2.40;;;;;25.80;98724.00;;;;5075188;28;20532;-64
2023/06/05 10:40:55;;;;;;;3.58;2.25;;;;;25.70;98724.00;;;;5072921;28;20052;-63
2023/06/05 10:43:32;;;;;;;4.03;2.55;;;;;25.80;98726.00;;;;5072179;28;20040;-63
2023/06/05 10:46:29;;;;;;;4.13;2.00;;;;;25.80;98720.00;;;;5071942;28;20064;-63
2023/06/05 10:49:17;;;;;;;4.97;2.22;;;;;25.80;98722.00;;;;5071622;28;20514;-63
2023/06/05 10:51:46;;;;;;;2.95;2.38;;;;;25.90;98719.00;;;;5055282;28;20045;-64
2023/06/05 10:54:34;;;;;;;2.92;2.00;;;;;25.90;98714.00;;;;5055705;28;20048;-64
2023/06/05 10:57:03;;;;;;;2.85;1.90;;;;;26.10;98725.00;;;;5073075;28;20493;-62
2023/06/05 10:59:35;;;;;;;3.13;2.00;;;;;26.10;98720.00;;;;5072796;28;20075;-63
2023/06/05 11:02:05;;;;;;;3.92;2.15;;;;;26.10;98724.00;;;;5051169;28;20037;-64
2023/06/05 11:04:46;;;;;;;4.50;2.45;;;;;26.10;98714.00;;;;5050621;28;20513;-62
2023/06/05 11:07:27;;;;;;;5.55;2.33;;;;;26.20;98725.00;;;;5051503;28;20049;-63
2023/06/05 11:10:02;;;;;;;2.92;2.50;;;;;26.30;98715.00;;;;5051958;28;20049;-64
2023/06/05 11:12:38;;;;;;;4.47;2.38;;;;;26.20;98714.00;;;;5050677;28;20470;-63
2023/06/05 11:15:06;;;;;;;4.45;2.20;;;;;26.20;98711.00;;;;5051807;28;20483;-64
2023/06/05 11:17:34;;;;;;;3.30;2.38;;;;;26.50;98714.00;;;;5034554;28;20063;-63
2023/06/05 11:20:06;;;;;;;3.15;2.10;;;;;26.50;98707.00;;;;5051866;28;20409;-63
2023/06/05 11:22:33;;;;;;;3.00;2.40;;;;;26.70;98711.00;;;;5052540;28;20051;-64
2023/06/05 11:25:19;;;;;;;3.80;2.30;;;;;26.60;98707.00;;;;5050930;28;20095;-65
2023/06/05 11:28:01;;;;;;;2.85;2.33;;;;;26.60;98705.00;;;;5051729;28;20128;-64
2023/06/05 11:30:40;;;;;;;2.53;2.20;;;;;26.60;98713.00;;;;5051695;28;20517;-62
2023/06/05 11:33:18;;;;;;;4.28;2.30;;;;;26.60;98700.00;;;;5052073;28;20087;-64
2023/06/05 11:35:47;;;;;;;4.60;2.55;;;;;26.70;98702.00;;;;5051686;28;20052;-64
2023/06/05 11:38:19;;;;;;;4.22;2.42;;;;;26.80;98699.00;;;;5051863;28;20045;-64
2023/06/05 11:40:49;;;;;;;3.90;2.25;;;;;26.90;98694.00;;;;5051771;28;20170;-65
2023/06/05 11:43:16;;;;;;;4.30;2.40;;;;;26.80;98693.00;;;;5051384;28;20480;-63
2023/06/05 11:45:53;;;;;;;5.00;2.40;;;;;27.00;98707.00;;;;5051960;28;20502;-64
2023/06/05 11:48:20;;;;;;;2.95;2.25;;;;;26.90;98689.00;;;;5052845;28;20048;-64
2023/06/05 11:50:56;;;;;;;4.78;2.88;;;;;27.00;98696.00;;;;5052211;28;20094;-64
2023/06/05 11:53:23;;;;;;;4.75;2.47;;;;;27.30;98701.00;;;;5051925;28;20053;-63
2023/06/05 11:58:25;;;;;;;6.50;2.20;;;;;27.30;98689.00;;;;5051882;28;20383;-63
2023/06/05 12:01:03;;;;;;;2.72;2.03;;;;;27.40;98698.00;;;;5052751;28;20069;-63
2023/06/05 12:03:30;;;;;;;2.75;2.33;;;;;27.40;98699.00;;;;5055867;28;20452;-63
2023/06/05 12:05:57;;;;;;;7.25;2.70;;;;;27.50;98702.00;;;;5055506;28;20041;-62
2023/06/05 12:08:25;;;;;;;6.93;2.95;;;;;27.60;98704.00;;;;5055744;28;20053;-63
2023/06/05 12:10:53;;;;;;;3.95;2.28;;;;;27.50;98688.00;;;;5055114;28;20045;-64
2023/06/05 12:13:20;;;;;;;4.47;2.55;;;;;27.40;98694.00;;;;5055547;28;20052;-64
2023/06/05 12:15:57;;;;;;;3.15;2.30;;;;;27.40;98689.00;;;;5055169;28;20037;-64
2023/06/05 12:18:33;;;;;;;2.90;2.40;;;;;27.40;98695.00;;;;5055376;28;20512;-63
2023/06/05 12:21:01;;;;;;;4.68;2.30;;;;;27.20;98682.00;;;;5054898;28;20048;-64
2023/06/05 12:23:32;;;;;;;3.15;2.10;;;;;27.30;98684.00;;;;5053787;28;20106;-64
2023/06/05 12:26:01;;;;;;;3.45;2.50;;;;;27.20;98685.00;;;;5054916;28;20041;-64
2023/06/05 12:28:28;;;;;;;6.45;2.50;;;;;27.10;98678.00;;;;5054717;28;20462;-63
2023/06/05 12:30:55;;;;;;;2.28;2.03;;;;;27.20;98688.00;;;;5054565;28;20118;-64